• Join FlightAware (Why Join?)
  • Login
  • US Flag 
03:18AM EST


 

Airport Tracker/Info


-or-


 

Live Flight TrackerFlight Track Log ✈ N500HY ✈ 08-May-2013 ✈ KPGV - KIND

Flight Track Log - Related Links

Times and Time Zones

All times are in EDT time to prevent confusion due to time zone crossing. See the N500HY flight status page for this flight to view local times or setup timezone preferences in your user account.

Time Position Orientation Groundspeed Altitude Reporting Facility
EDT Latitude Longitude Course Direction KTS MPH feet Rate Location/Type
07:42AM 35.5531 -77.4608 302° West 421 484 6,400  Level Washington Center
07:43AM 35.5853 -77.5408 296° West 319 367 9,600 3,000 Climbing Washington Center
07:44AM 35.6214 -77.6261 298° West 291 335 12,300 2,520 Climbing Washington Center
07:45AM 35.6575 -77.7139 297° West 291 335 14,700 2,400 Climbing Washington Center
07:46AM 35.6953 -77.8094 296° West 297 342 17,200 2,100 Climbing Washington Center
07:47AM 35.8839 -78.0179 302° West  Level FlightAware Approximate
07:47AM 35.7353 -77.9000 299° West 302 348 18,900  Level Washington Center
07:48AM 35.7753 -77.9933 298° West 307 353 21,000 1,740 Climbing Washington Center
07:49AM 35.8150 -78.0919 296° West 307 353 22,400 1,500 Climbing Washington Center
07:50AM 35.8544 -78.1906 296° West 307 353 24,100 1,860 Climbing Washington Center
07:51AM 35.8942 -78.2867 297° West 307 353 26,100 1,860 Climbing Washington Center
07:52AM 35.9358 -78.3831 298° West 307 353 27,800 1,560 Climbing Washington Center
07:53AM 35.9772 -78.4847 297° West 314 361 29,300 1,380 Climbing Washington Center
07:54AM 36.0144 -78.5811 296° West 319 367 30,700 1,200 Climbing Washington Center
07:55AM 36.0578 -78.6803 298° West 319 367 31,800 1,020 Climbing Washington Center
07:56AM 36.0969 -78.7847 295° West 324 373 32,800 840 Climbing Washington Center
07:57AM 36.1400 -78.8867 298° West 324 373 33,500 600 Climbing Washington Center
07:58AM 36.1828 -78.9942 296° West 335 386 34,000 540 Climbing Washington Center
07:59AM 36.2256 -79.1014 296° West 341 392 34,600 660 Climbing Washington Center
08:00AM 36.2703 -79.2142 296° West 351 404 35,400 540 Climbing Washington Center
08:01AM 36.3128 -79.3244 296° West 351 404 35,800 240 Climbing Washington Center
08:02AM 36.3592 -79.4375 297° West 361 415 36,000 60 Climbing Washington Center
08:03AM 36.4056 -79.5561 296° West 374 430 36,000  Level Washington Center
08:04AM 36.4536 -79.6797 296° West 387 445 36,000  Level Washington Center
08:05AM 36.5011 -79.8064 295° West 392 451 36,000 240 Level Washington Center
08:06AM 36.5531 -79.9333 297° West 403 464 36,500 1,140 Climbing Washington Center
08:07AM 36.5869 -80.0236 295° West 406 467 37,900 900 Climbing Atlanta Center
08:08AM 36.6325 -80.1428 296° West 384 442 38,000  Climbing Atlanta Center
08:09AM 36.6733 -80.2497 295° West 378 435 38,000  Level Atlanta Center
08:10AM 36.7208 -80.3692 296° West 378 435 38,000  Level Atlanta Center
08:11AM 36.7683 -80.4964 295° West 389 448 38,000  Level Atlanta Center
08:12AM 36.8156 -80.6214 295° West 394 453 38,000  Level Atlanta Center
08:13AM 36.8628 -80.7464 295° West 394 453 38,000  Level Atlanta Center
08:14AM 36.9186 -80.8894 296° West 400 460 38,000  Level Atlanta Center
08:15AM 36.9658 -81.0175 295° West 405 466 38,000  Level Atlanta Center
08:16AM 37.0167 -81.1456 296° West 410 472 38,000  Level Atlanta Center
08:17AM 37.0992 -81.3547 296° West 417 480 38,000  Level Indianapolis Center
08:18AM 37.1483 -81.4861 295° West 416 479 38,000  Level Indianapolis Center
08:19AM 37.1961 -81.6178 295° West 417 480 38,000  Level Indianapolis Center
08:20AM 37.2272 -81.7569 286° West 417 480 38,000  Level Indianapolis Center
08:21AM 37.2525 -81.8992 283° West 420 483 38,000  Level Indianapolis Center
08:22AM 37.2806 -82.0397 284° West 416 479 38,000  Level Indianapolis Center
08:23AM 37.3083 -82.1819 284° West 420 483 38,000  Level Indianapolis Center
08:24AM 37.3458 -82.3456 286° West 418 481 38,000  Level Indianapolis Center
08:25AM 37.3983 -82.4758 297° West 417 480 38,000  Level Indianapolis Center
08:26AM 37.4497 -82.6064 296° West 419 482 38,000  Level Indianapolis Center
08:28AM 37.5014 -82.7364 297° West 417 480 38,000  Level Indianapolis Center
08:29AM 37.5519 -82.8664 296° West 415 478 38,000  Level Indianapolis Center
08:30AM 37.6031 -82.9964 296° West 415 478 38,000  Level Indianapolis Center
08:31AM 37.6619 -83.1497 296° West 417 480 38,000  Level Indianapolis Center
08:32AM 37.7133 -83.2811 296° West 418 481 38,000  Level Indianapolis Center
08:33AM 37.7644 -83.4139 296° West 420 483 38,000  Level Indianapolis Center
08:34AM 37.8161 -83.5467 296° West 421 484 38,000  Level Indianapolis Center
08:35AM 37.8658 -83.6808 295° West 423 487 38,000  Level Indianapolis Center
08:36AM 37.9178 -83.8156 296° West 425 489 38,000  Level Indianapolis Center
08:37AM 37.9692 -83.9489 296° West 423 487 38,000  Level Indianapolis Center
08:38AM 38.0289 -84.1078 296° West 424 488 38,000 -600 Level Indianapolis Center
08:39AM 38.0783 -84.2431 295° West 423 487 36,800 -1,740 Descending Indianapolis Center
08:40AM 38.1286 -84.3786 295° West 424 488 34,500 -2,160 Descending Indianapolis Center
08:41AM 38.1764 -84.5067 295° West 402 463 32,400 -2,100 Descending Indianapolis Center
08:42AM 38.2250 -84.6356 296° West 405 466 30,200 -2,100 Descending Indianapolis Center
08:43AM 38.2733 -84.7689 295° West 414 476 28,100 -1,080 Descending Indianapolis Center
08:44AM 38.3239 -84.9047 295° West 422 486 28,000 -60 Descending Indianapolis Center
08:45AM 38.3828 -85.0675 295° West 432 497 28,000  Level Indianapolis Center
08:46AM 38.4347 -85.2072 295° West 435 501 28,000  Level Indianapolis Center
08:47AM 38.4839 -85.3464 294° West 436 502 28,000 -900 Level Indianapolis Center
08:48AM 38.5369 -85.4867 296° West 432 497 26,200 -1,920 Descending Indianapolis Center
08:49AM 38.6122 -85.6000 310° West 427 491 24,100 -2,220 Descending Indianapolis Center
08:50AM 38.7264 -85.6600 338° Northwest 417 480 21,700 -2,280 Descending Indianapolis Center
08:51AM 38.8353 -85.6786 352° North 399 459 19,500 -2,100 Descending Indianapolis Center
08:52AM 38.9392 -85.6972 352° North 383 441 17,400 -2,100 Descending Indianapolis Center
08:53AM 39.0406 -85.7161 352° North 371 427 15,200 -1,680 Descending Indianapolis Center
08:54AM 39.1394 -85.7339 352° North 362 417 14,000 -1,380 Descending Indianapolis Center
08:55AM 39.2575 -85.7547 352° North 359 413 12,400 -1,560 Descending Indianapolis Center
08:56AM 39.3425 -85.8042 336° Northwest 348 400 10,900 -1,200 Descending Indianapolis Center
08:57AM 39.4064 -85.8778 318° Northwest 309 356 10,000 -840 Descending Indianapolis Center
08:58AM 39.4589 -85.9394 318° Northwest 260 299 9,200 -1,500 Descending Indianapolis Center
08:59AM 39.5075 -85.9972 317° Northwest 241 277 7,000 -2,160 Descending Indianapolis Center
09:00AM 39.5600 -86.0572 319° Northwest 248 285 4,800 -1,920 Descending Indianapolis Center
09:01AM 39.6150 -86.1358 312° West 248 285 3,100 -1,080 Descending Indianapolis Center
09:02AM 39.6500 -86.1667 326° Northwest 162 186 2,900 -540 Descending Indianapolis TRACON
09:03AM 39.6667 -86.2000 303° West 129 148 2,100 -720 Descending Indianapolis TRACON
09:04AM 39.7000 -86.2500 311° West 131 151 1,400 -420 Descending Indianapolis TRACON
09:07AM 39.7325 -86.2839 321° Northwest 62 71 800 -240 Descending Indianapolis Center
09:08AM 39.7333 -86.2808 70° East 32 37 800  Level Indianapolis Center